Baker City, OR

9:58 AM PST on February 01, 2015 (GMT -0800)
Baker City Municipal | Change Station
CLOSE
Current Station
Airport
Location: Baker,
Elevation: 3373 ft
Nearby Weather Stations

Elev 3373 ft 44.84 °N, 117.81 °W | Updated 5 minutes ago

Overcast
Overcast
32 °F
Feels Like 32 °F
N
0
Wind Variable Wind from North

Today
High -- | Low -- °F
--% Chance of Precip.
Yesterday
High -- | Low -- °F
Precip. -- in
7:10 AM 4:59 PM
Waxing Gibbous, 95% visible
Pressure 30.22 in
Visibility 10.0 miles
Clouds Overcast 6500 ft
Dew Point 30 °F
Humidity 92%
Rainfall 0.00 in
Snow Depth Not available.
UV 1 out of 12
Pollen 1.70 out of 12
Air Quality Not available.
Flu Activity Not available.
METAR KBKE 011753Z AUTO 00000KT 10SM OVC065 00/M01 A3015 RMK AO2 SLP234 T00001011 10000 21028 53005 TSNO

More Conditions Fewer Conditions

Pressure 30.22 in
Visibility 10.0 miles
Clouds Overcast 6500 ft
Dew Point 30 °F
Humidity 92%
Rainfall 0.00 in
Snow Depth Not available.
UV 1 out of 12
Pollen 1.70 out of 12
Air Quality Not available.
Flu Activity Not available.
METAR KBKE 011753Z AUTO 00000KT 10SM OVC065 00/M01 A3015 RMK AO2 SLP234 T00001011 10000 21028 53005 TSNO

More Conditions Fewer Conditions

10-Day Weather Forecast

Almanac

Astronomy

Feb. 01, 2015 Rise Set
Actual Time
Civil Twilight
Nautical Twilight
Astronomical Twilight
Moon
Length of Visible Light
Length of Day
Tomorrow will be .
, % of the Moon is Illuminated

Today's Extremes

State Highs State Lows

Community

WunderPhotos

Upload Photos

1,792,408 photos uploaded!

WunderBlogs® & News

Nearby

Air Quality

  Air Quality AQ Index Pollutant
Not available.

Snow Depth

Station Depth Elevation

Earthquake Activity

City Distance Mag. Time & Date
Minimum magnitude displayed is 2.5.

Coastal Water Temperatures

Place Temperature

Nearby Weather Stations